Time;durP1;ratioP1;P1;durP2;ratioP2;P2;SDS_P1;SDS_P2;PMS_P1;PMS_P2;Temp;Humidity;BMP_temperature;BMP_pressure;BME280_temperature;BME280_humidity;BME280_pressure;Samples;Min_cycle;Max_cycle;Signal;HPM_P1;HPM_P2
2023/03/24 00:02:06;;;;;;;12.00;4.80;;;11.80;99.90;;;;;;5033834;28;20025;-74
2023/03/24 00:04:32;;;;;;;12.45;5.78;;;11.80;99.90;;;;;;5016061;28;20381;-74
2023/03/24 00:07:00;;;;;;;15.73;6.63;;;11.80;99.90;;;;;;5029948;28;20150;-74
2023/03/24 00:09:28;;;;;;;12.55;4.55;;;11.80;99.90;;;;;;5032592;28;20458;-74
2023/03/24 00:11:53;;;;;;;13.60;4.78;;;11.80;99.90;;;;;;5033021;28;20445;-74
2023/03/24 00:14:19;;;;;;;15.27;5.72;;;11.80;99.90;;;;;;5032917;28;20095;-74
2023/03/24 00:16:45;;;;;;;11.07;5.57;;;11.90;99.90;;;;;;5033040;28;20021;-74
2023/03/24 00:19:13;;;;;;;17.17;6.10;;;11.80;99.90;;;;;;5031662;28;20026;-74
2023/03/24 00:21:40;;;;;;;12.27;6.10;;;11.90;99.90;;;;;;5012943;28;20389;-74
2023/03/24 00:24:06;;;;;;;14.05;6.32;;;11.90;99.90;;;;;;5021470;28;20084;-74
2023/03/24 00:26:34;;;;;;;14.23;5.20;;;11.90;99.90;;;;;;5032649;28;20029;-74
2023/03/24 00:29:00;;;;;;;15.13;6.43;;;11.90;99.90;;;;;;5032867;28;20029;-73
2023/03/24 00:31:26;;;;;;;11.75;4.93;;;11.90;99.90;;;;;;5032327;28;20099;-73
2023/03/24 00:33:52;;;;;;;12.57;5.63;;;11.90;99.90;;;;;;5032604;28;20021;-73
2023/03/24 00:36:20;;;;;;;11.75;5.95;;;11.90;99.90;;;;;;5032136;28;20033;-73
2023/03/24 00:38:48;;;;;;;13.02;7.10;;;12.00;99.90;;;;;;5032331;28;20033;-72
2023/03/24 00:41:18;;;;;;;12.20;6.70;;;12.00;99.90;;;;;;5030235;28;20033;-72
2023/03/24 00:43:45;;;;;;;15.10;6.85;;;12.00;99.90;;;;;;5030832;28;20040;-72
2023/03/24 00:46:27;;;;;;;14.73;7.47;;;12.00;99.90;;;;;;5028328;28;20080;-72
2023/03/24 00:49:01;;;;;;;17.25;7.82;;;12.10;99.90;;;;;;5029043;28;20113;-73
2023/03/24 00:51:29;;;;;;;14.65;7.47;;;12.10;99.90;;;;;;5028831;28;20049;-72
2023/03/24 00:53:56;;;;;;;11.52;6.25;;;12.20;99.90;;;;;;5012891;28;20461;-72
2023/03/24 00:56:23;;;;;;;12.57;6.25;;;12.20;99.90;;;;;;5013546;28;20021;-72
2023/03/24 00:58:48;;;;;;;12.32;6.18;;;12.20;99.90;;;;;;5032130;28;20033;-72
2023/03/24 01:01:14;;;;;;;14.52;6.28;;;12.30;99.90;;;;;;5031949;28;20541;-72
2023/03/24 01:03:49;;;;;;;12.85;5.03;;;12.30;99.90;;;;;;5031829;28;20029;-72
2023/03/24 01:06:16;;;;;;;9.75;5.45;;;12.40;99.90;;;;;;5031951;28;20052;-72
2023/03/24 01:08:42;;;;;;;14.40;6.78;;;12.40;99.90;;;;;;5032058;28;20052;-72
2023/03/24 01:11:07;;;;;;;9.35;4.25;;;12.40;99.90;;;;;;5031810;28;20109;-71
2023/03/24 01:13:33;;;;;;;8.02;3.60;;;12.40;99.90;;;;;;5014245;28;20438;-73
2023/03/24 01:15:58;;;;;;;7.25;3.47;;;12.50;99.90;;;;;;5031586;28;20041;-73
2023/03/24 01:18:24;;;;;;;10.40;4.03;;;12.50;99.90;;;;;;5031543;28;20021;-73
2023/03/24 01:20:50;;;;;;;10.18;3.95;;;12.40;99.90;;;;;;5032203;28;20068;-73
2023/03/24 01:23:22;;;;;;;10.10;4.03;;;12.40;99.90;;;;;;5032239;28;20029;-74
2023/03/24 01:25:49;;;;;;;9.93;4.93;;;12.40;99.90;;;;;;5032133;28;20128;-73
2023/03/24 01:28:22;;;;;;;9.65;4.20;;;12.50;99.90;;;;;;5029985;28;20037;-74
2023/03/24 01:30:48;;;;;;;7.78;3.65;;;12.40;99.90;;;;;;5031892;28;20476;-74
2023/03/24 01:33:14;;;;;;;7.95;3.95;;;12.50;99.90;;;;;;5032252;28;20046;-74
2023/03/24 01:35:39;;;;;;;11.05;4.68;;;12.50;99.90;;;;;;5031925;28;20028;-74
2023/03/24 01:38:10;;;;;;;7.50;3.85;;;12.40;99.90;;;;;;5031785;28;20029;-74
2023/03/24 01:40:38;;;;;;;12.25;4.40;;;12.40;99.90;;;;;;5031865;28;20032;-73
2023/03/24 01:43:05;;;;;;;10.70;4.63;;;12.40;99.90;;;;;;5031781;28;20026;-73
2023/03/24 01:45:33;;;;;;;7.35;3.28;;;12.40;99.90;;;;;;5012275;28;20072;-72
2023/03/24 01:48:00;;;;;;;13.98;4.07;;;12.40;99.90;;;;;;5029183;28;20495;-73
2023/03/24 01:50:25;;;;;;;14.60;3.47;;;12.40;99.90;;;;;;5029980;28;20056;-73
2023/03/24 01:52:51;;;;;;;13.05;4.07;;;12.30;99.90;;;;;;5031845;28;20376;-72
2023/03/24 01:55:18;;;;;;;19.33;3.95;;;12.20;99.90;;;;;;5031099;28;20038;-72
2023/03/24 01:57:53;;;;;;;21.27;5.03;;;12.10;99.90;;;;;;5027593;28;20104;-72
2023/03/24 02:00:20;;;;;;;16.45;3.55;;;12.00;99.90;;;;;;5031387;28;20113;-72
2023/03/24 02:02:53;;;;;;;17.77;3.63;;;12.00;99.90;;;;;;5031758;28;20034;-72
2023/03/24 02:05:22;;;;;;;20.05;3.95;;;11.80;99.90;;;;;;5029577;28;20147;-72
2023/03/24 02:08:10;;;;;;;13.35;2.90;;;11.70;99.90;;;;;;5029068;28;20036;-72
2023/03/24 02:10:36;;;;;;;11.45;2.47;;;11.60;99.90;;;;;;5031314;28;20381;-72
2023/03/24 02:13:03;;;;;;;13.35;2.40;;;11.50;99.90;;;;;;5031391;28;20033;-71
2023/03/24 02:15:30;;;;;;;16.45;2.47;;;11.40;99.90;;;;;;5031426;28;20542;-72
2023/03/24 02:18:17;;;;;;;9.27;2.75;;;11.30;99.90;;;;;;5030459;28;20044;-72
2023/03/24 02:21:13;;;;;;;15.32;3.13;;;11.20;99.90;;;;;;5031392;28;20037;-73
2023/03/24 02:23:42;;;;;;;20.27;2.88;;;11.20;99.90;;;;;;5030780;28;20521;-71
2023/03/24 02:26:13;;;;;;;15.73;3.28;;;11.10;99.90;;;;;;5035208;28;20048;-71
2023/03/24 02:28:52;;;;;;;19.23;3.50;;;11.00;99.90;;;;;;5035409;28;20084;-71
2023/03/24 02:31:27;;;;;;;19.58;3.08;;;10.90;99.90;;;;;;5034767;28;20057;-71
2023/03/24 02:34:12;;;;;;;14.27;2.97;;;10.90;99.90;;;;;;5019363;28;20463;-71
2023/03/24 02:37:03;;;;;;;22.55;4.15;;;10.80;99.90;;;;;;5035283;28;20462;-71
2023/03/24 02:40:07;;;;;;;22.35;3.40;;;10.70;99.90;;;;;;5017147;28;20234;-71
2023/03/24 02:43:01;;;;;;;19.50;3.33;;;10.70;99.90;;;;;;5032570;28;20037;-71
2023/03/24 02:45:43;;;;;;;15.07;3.42;;;10.60;99.90;;;;;;5008732;28;20049;-71
2023/03/24 02:48:18;;;;;;;19.33;3.78;;;10.60;99.90;;;;;;5034844;28;20033;-71
2023/03/24 02:50:50;;;;;;;16.08;3.33;;;10.60;99.90;;;;;;5034799;28;20116;-71
2023/03/24 02:53:36;;;;;;;15.63;2.33;;;10.50;99.90;;;;;;5035049;28;20033;-72
2023/03/24 02:56:09;;;;;;;20.58;3.35;;;10.40;99.90;;;;;;5019032;28;20037;-72
2023/03/24 02:59:13;;;;;;;15.98;2.78;;;10.40;99.90;;;;;;5033280;28;20513;-72
2023/03/24 03:01:56;;;;;;;18.20;2.67;;;10.30;99.90;;;;;;5000852;28;20049;-72
2023/03/24 03:04:32;;;;;;;18.50;2.53;;;10.20;99.90;;;;;;5034236;28;20616;-72
2023/03/24 03:07:05;;;;;;;20.85;3.25;;;10.10;99.90;;;;;;5015834;28;20042;-72
2023/03/24 03:09:32;;;;;;;22.15;2.53;;;10.00;99.90;;;;;;5034456;28;20048;-72
2023/03/24 03:11:59;;;;;;;14.50;2.75;;;10.00;99.90;;;;;;5034158;28;20037;-72
2023/03/24 03:14:38;;;;;;;17.90;3.50;;;9.90;99.90;;;;;;5031511;28;20036;-72
2023/03/24 03:17:15;;;;;;;14.02;2.30;;;9.90;99.90;;;;;;5034400;28;20128;-73
2023/03/24 03:19:46;;;;;;;18.10;3.38;;;9.80;99.90;;;;;;5034601;28;20125;-72
2023/03/24 03:22:19;;;;;;;24.33;3.15;;;9.80;99.90;;;;;;5034339;28;20030;-72
2023/03/24 03:24:52;;;;;;;19.10;3.15;;;9.80;99.90;;;;;;5034488;28;20031;-72
2023/03/24 03:27:45;;;;;;;28.73;4.13;;;9.80;99.90;;;;;;5034077;28;20473;-72
2023/03/24 03:30:28;;;;;;;13.35;2.40;;;9.70;99.90;;;;;;5016298;28;20045;-72
2023/03/24 03:33:01;;;;;;;14.85;3.08;;;9.70;99.90;;;;;;5026341;28;20187;-72
2023/03/24 03:35:40;;;;;;;13.18;3.90;;;9.70;99.90;;;;;;5032983;28;20025;-72
2023/03/24 03:38:13;;;;;;;18.17;2.33;;;9.70;99.90;;;;;;5034379;28;20033;-72
2023/03/24 03:40:49;;;;;;;17.52;3.72;;;9.70;99.90;;;;;;5034129;28;20118;-72
2023/03/24 03:43:15;;;;;;;17.33;3.08;;;9.60;99.90;;;;;;5034178;28;20585;-72
2023/03/24 03:45:40;;;;;;;21.60;3.35;;;9.60;99.90;;;;;;5033917;28;20129;-73
2023/03/24 03:48:06;;;;;;;18.00;3.83;;;9.60;99.90;;;;;;5033673;28;20029;-73
2023/03/24 03:50:32;;;;;;;13.82;2.70;;;9.60;99.90;;;;;;5031657;28;20115;-72
2023/03/24 03:52:57;;;;;;;19.35;3.47;;;9.60;99.90;;;;;;5033923;28;20099;-72
2023/03/24 03:55:23;;;;;;;19.17;3.30;;;9.50;99.90;;;;;;5033794;28;20477;-72
2023/03/24 03:57:49;;;;;;;15.00;2.95;;;9.50;99.90;;;;;;5017405;28;20028;-72
2023/03/24 04:00:19;;;;;;;14.23;2.58;;;9.50;99.90;;;;;;5033529;28;20116;-72
2023/03/24 04:02:59;;;;;;;13.32;2.90;;;9.50;99.90;;;;;;5032990;28;20029;-72
2023/03/24 04:05:35;;;;;;;17.90;3.17;;;9.50;99.90;;;;;;5030224;28;20025;-72
2023/03/24 04:08:31;;;;;;;15.30;2.80;;;9.50;99.90;;;;;;5033478;28;20025;-73
2023/03/24 04:11:11;;;;;;;13.98;2.40;;;9.50;99.90;;;;;;5002739;28;20037;-72
2023/03/24 04:13:57;;;;;;;20.25;3.22;;;9.50;99.90;;;;;;5033274;28;20029;-72
2023/03/24 04:16:41;;;;;;;21.17;2.65;;;9.50;99.90;;;;;;5033384;28;20060;-72
2023/03/24 04:19:06;;;;;;;18.30;3.15;;;9.50;99.90;;;;;;5033439;28;20528;-72
2023/03/24 04:22:07;;;;;;;22.90;3.72;;;9.50;99.90;;;;;;5030501;28;20022;-73
2023/03/24 04:24:58;;;;;;;25.25;3.60;;;9.40;99.90;;;;;;5022791;28;20041;-72
2023/03/24 04:27:37;;;;;;;21.50;3.20;;;9.40;99.90;;;;;;5032299;28;20036;-72
2023/03/24 04:30:06;;;;;;;18.40;3.13;;;9.40;99.90;;;;;;5033221;28;20030;-72
2023/03/24 04:32:36;;;;;;;21.40;3.50;;;9.50;99.90;;;;;;5032276;28;20503;-72
2023/03/24 04:35:09;;;;;;;27.50;3.75;;;9.40;99.90;;;;;;5032581;28;20029;-72
2023/03/24 04:37:38;;;;;;;23.83;3.47;;;9.40;99.90;;;;;;5032006;28;20454;-72
2023/03/24 04:40:13;;;;;;;20.10;3.45;;;9.40;99.90;;;;;;5030786;28;20091;-72
2023/03/24 04:42:51;;;;;;;26.58;4.28;;;9.40;99.90;;;;;;5032179;28;20124;-72
2023/03/24 04:45:24;;;;;;;26.95;4.00;;;9.30;99.90;;;;;;5030986;28;20019;-72
2023/03/24 04:47:55;;;;;;;26.60;3.88;;;9.30;99.90;;;;;;4996032;28;20029;-72
2023/03/24 04:50:36;;;;;;;24.88;3.97;;;9.30;99.90;;;;;;5018357;28;20103;-73
2023/03/24 04:53:04;;;;;;;28.17;4.38;;;9.30;99.90;;;;;;5029665;28;20553;-73
2023/03/24 04:55:53;;;;;;;29.60;4.32;;;9.30;99.90;;;;;;5029968;28;20037;-73
2023/03/24 04:58:21;;;;;;;31.83;5.55;;;9.20;99.90;;;;;;5032646;28;20033;-73
2023/03/24 05:00:48;;;;;;;26.50;4.20;;;9.20;99.90;;;;;;5031220;28;20029;-73
2023/03/24 05:03:15;;;;;;;28.48;4.03;;;9.20;99.90;;;;;;5032518;28;20033;-73
2023/03/24 05:05:47;;;;;;;20.00;3.95;;;9.20;99.90;;;;;;5032493;28;20050;-72
2023/03/24 05:08:13;;;;;;;34.28;5.15;;;9.20;99.90;;;;;;5031668;28;20036;-73
2023/03/24 05:10:38;;;;;;;27.83;4.07;;;9.20;99.90;;;;;;5032900;28;20061;-73
2023/03/24 05:13:05;;;;;;;21.58;4.13;;;9.10;99.90;;;;;;5029964;28;20068;-72
2023/03/24 05:15:31;;;;;;;34.45;5.10;;;9.20;99.90;;;;;;5032067;28;20471;-72
2023/03/24 05:17:57;;;;;;;36.42;4.47;;;9.20;99.90;;;;;;5032519;28;20035;-72
2023/03/24 05:20:23;;;;;;;25.17;3.97;;;9.10;99.90;;;;;;5032683;28;20354;-72
2023/03/24 05:22:50;;;;;;;33.42;5.78;;;9.20;99.90;;;;;;5031625;28;20036;-73
2023/03/24 05:25:16;;;;;;;27.17;4.30;;;9.20;99.90;;;;;;5032419;28;20025;-72
2023/03/24 05:27:43;;;;;;;35.10;6.47;;;9.10;99.90;;;;;;5032174;28;20032;-72
2023/03/24 05:30:09;;;;;;;35.28;5.57;;;9.10;99.90;;;;;;5028533;28;20063;-73
2023/03/24 05:32:34;;;;;;;33.33;5.88;;;9.10;99.90;;;;;;5032226;28;20053;-73
2023/03/24 05:35:00;;;;;;;42.78;6.80;;;9.10;99.90;;;;;;5032268;28;20022;-72
2023/03/24 05:37:26;;;;;;;41.65;7.07;;;9.10;99.90;;;;;;5032613;28;20029;-73
2023/03/24 05:39:52;;;;;;;39.05;7.38;;;9.10;99.90;;;;;;5032398;28;20033;-73
2023/03/24 05:42:19;;;;;;;33.63;6.47;;;9.20;99.90;;;;;;5031596;28;20077;-73
2023/03/24 05:44:45;;;;;;;32.20;6.70;;;9.30;99.90;;;;;;5031955;28;20035;-73
2023/03/24 05:47:14;;;;;;;39.67;6.75;;;9.30;99.90;;;;;;5028372;28;20041;-73
2023/03/24 05:49:43;;;;;;;38.60;6.80;;;9.30;99.90;;;;;;5031312;28;20140;-73
2023/03/24 05:52:10;;;;;;;42.70;7.90;;;9.40;99.90;;;;;;5031747;28;20029;-73
2023/03/24 05:54:38;;;;;;;43.30;6.32;;;9.40;99.90;;;;;;5031738;28;20029;-72
2023/03/24 05:57:06;;;;;;;38.05;6.15;;;9.50;99.90;;;;;;5032049;28;20111;-73
2023/03/24 05:59:32;;;;;;;41.30;6.50;;;9.50;99.90;;;;;;5034799;28;20022;-73
2023/03/24 06:01:58;;;;;;;30.30;5.68;;;9.60;99.90;;;;;;5035866;28;20116;-72
2023/03/24 06:04:28;;;;;;;37.80;5.38;;;9.60;99.90;;;;;;5033811;28;20108;-72
2023/03/24 06:06:54;;;;;;;35.58;7.10;;;9.60;99.90;;;;;;5035808;28;20045;-72
2023/03/24 06:09:20;;;;;;;38.78;5.95;;;9.70;99.90;;;;;;5035811;28;20415;-73
2023/03/24 06:11:49;;;;;;;39.10;6.78;;;9.60;99.90;;;;;;5035295;28;20025;-73
2023/03/24 06:14:15;;;;;;;31.65;6.25;;;9.70;99.90;;;;;;5036001;28;20079;-73
2023/03/24 06:16:41;;;;;;;39.83;6.07;;;9.70;99.90;;;;;;5035469;28;20025;-73
2023/03/24 06:19:07;;;;;;;38.78;5.35;;;9.70;99.90;;;;;;5035377;28;20385;-73
2023/03/24 06:21:33;;;;;;;49.08;7.75;;;9.80;99.90;;;;;;5026054;28;20030;-73
2023/03/24 06:23:59;;;;;;;28.38;6.57;;;9.90;99.90;;;;;;5021414;28;20033;-73
2023/03/24 06:26:29;;;;;;;37.92;8.52;;;9.90;99.90;;;;;;5023654;28;20042;-73
2023/03/24 06:28:55;;;;;;;30.30;5.38;;;9.90;99.90;;;;;;5026324;28;20945;-72
2023/03/24 06:31:21;;;;;;;32.30;5.65;;;9.80;99.90;;;;;;5028042;28;20053;-73
2023/03/24 06:33:47;;;;;;;31.77;5.43;;;9.80;99.90;;;;;;5032157;28;20024;-73
2023/03/24 06:36:13;;;;;;;36.83;6.85;;;9.90;99.90;;;;;;5029898;28;20063;-73
2023/03/24 06:38:41;;;;;;;29.13;5.97;;;9.90;99.90;;;;;;5034395;28;20128;-72
2023/03/24 06:41:06;;;;;;;35.28;6.03;;;10.00;99.90;;;;;;5034640;28;20113;-73
2023/03/24 06:43:33;;;;;;;28.83;5.57;;;10.10;99.90;;;;;;5029004;28;20112;-72
2023/03/24 06:45:59;;;;;;;35.17;6.05;;;10.10;99.90;;;;;;5033081;28;20136;-72
2023/03/24 06:48:25;;;;;;;29.17;5.38;;;10.10;99.90;;;;;;5032654;28;20064;-72
2023/03/24 06:50:52;;;;;;;27.85;4.57;;;10.10;99.90;;;;;;5032032;28;20029;-73
2023/03/24 06:53:17;;;;;;;28.27;5.65;;;10.10;99.90;;;;;;5027457;28;20057;-73
2023/03/24 06:55:43;;;;;;;31.60;4.68;;;10.10;99.90;;;;;;5027799;28;20068;-73
2023/03/24 06:58:09;;;;;;;33.97;6.60;;;10.10;99.90;;;;;;5030671;28;20501;-73
2023/03/24 07:00:35;;;;;;;31.48;7.20;;;10.20;99.90;;;;;;5028325;28;20045;-73
2023/03/24 07:03:01;;;;;;;37.40;7.63;;;10.30;99.90;;;;;;5034009;28;20512;-73
2023/03/24 07:05:28;;;;;;;31.63;6.97;;;10.20;99.90;;;;;;5033029;28;20125;-73
2023/03/24 07:07:54;;;;;;;22.90;4.90;;;10.30;99.90;;;;;;5032516;28;20108;-73
2023/03/24 07:10:20;;;;;;;31.52;5.82;;;10.30;99.90;;;;;;5032963;28;20060;-74
2023/03/24 07:12:47;;;;;;;28.23;5.63;;;10.30;99.90;;;;;;5031493;28;20049;-74
2023/03/24 07:15:12;;;;;;;38.15;7.15;;;10.40;99.90;;;;;;5034336;28;20475;-74
2023/03/24 07:17:40;;;;;;;28.48;6.00;;;10.40;99.90;;;;;;5034587;28;20060;-74
2023/03/24 07:20:07;;;;;;;41.13;6.63;;;10.40;99.90;;;;;;5034074;28;20035;-74
2023/03/24 07:22:35;;;;;;;32.78;6.50;;;10.40;99.90;;;;;;5034949;28;20030;-74
2023/03/24 07:25:03;;;;;;;36.78;5.75;;;10.50;99.90;;;;;;5034559;28;20120;-74
2023/03/24 07:27:34;;;;;;;40.50;7.18;;;10.60;99.90;;;;;;5030744;28;20045;-73
2023/03/24 07:30:01;;;;;;;36.22;6.43;;;10.60;99.90;;;;;;5030205;28;20045;-73
2023/03/24 07:32:29;;;;;;;32.78;5.57;;;10.70;99.90;;;;;;5029421;28;20070;-74
2023/03/24 07:34:56;;;;;;;39.63;6.13;;;10.80;99.90;;;;;;5025886;28;20029;-74
2023/03/24 07:37:21;;;;;;;34.00;5.45;;;10.70;99.90;;;;;;5022447;28;20432;-74
2023/03/24 07:39:47;;;;;;;27.40;5.38;;;10.70;99.90;;;;;;5034332;28;20030;-74
2023/03/24 07:42:13;;;;;;;27.85;4.82;;;10.80;99.90;;;;;;5034481;28;20057;-74
2023/03/24 07:44:38;;;;;;;38.88;6.80;;;11.00;99.90;;;;;;5033764;28;20021;-74
2023/03/24 07:47:04;;;;;;;29.92;6.13;;;11.00;99.90;;;;;;5030738;28;20041;-73
2023/03/24 07:49:30;;;;;;;27.08;4.75;;;11.20;99.90;;;;;;5033851;28;20033;-74
2023/03/24 07:51:57;;;;;;;25.60;4.15;;;11.40;99.90;;;;;;5029538;28;20065;-73
2023/03/24 07:54:23;;;;;;;33.13;5.13;;;11.80;99.90;;;;;;5022194;28;20041;-74
2023/03/24 07:56:49;;;;;;;28.20;4.65;;;12.10;99.90;;;;;;5004171;28;20032;-74
2023/03/24 07:59:16;;;;;;;29.42;5.35;;;12.30;99.90;;;;;;5033725;28;20025;-74
2023/03/24 08:01:41;;;;;;;33.55;4.75;;;12.70;99.90;;;;;;5032803;28;20108;-74
2023/03/24 08:04:10;;;;;;;24.33;4.40;;;12.90;99.90;;;;;;5028776;28;20541;-74
2023/03/24 08:06:36;;;;;;;29.48;5.13;;;13.20;99.90;;;;;;5031525;28;20042;-74
2023/03/24 08:09:03;;;;;;;30.80;5.13;;;13.30;99.90;;;;;;5033281;28;20029;-74
2023/03/24 08:11:28;;;;;;;24.98;4.38;;;13.60;99.90;;;;;;5032425;28;20037;-74
2023/03/24 08:13:54;;;;;;;28.75;4.78;;;13.90;99.90;;;;;;5031635;28;20390;-74
2023/03/24 08:16:20;;;;;;;34.60;5.32;;;14.20;99.90;;;;;;5031565;28;20037;-74
2023/03/24 08:18:47;;;;;;;25.75;4.22;;;14.50;99.90;;;;;;5031745;28;20022;-74
2023/03/24 08:21:13;;;;;;;25.20;4.05;;;14.50;99.90;;;;;;5032359;28;20061;-74
2023/03/24 08:23:38;;;;;;;30.80;4.25;;;14.70;99.90;;;;;;5030370;28;20111;-74
2023/03/24 08:26:05;;;;;;;24.60;4.35;;;15.00;99.90;;;;;;5032855;28;20041;-74
2023/03/24 08:28:31;;;;;;;29.20;5.35;;;14.80;99.90;;;;;;5033512;28;20026;-74
2023/03/24 08:30:57;;;;;;;20.75;3.85;;;15.00;99.90;;;;;;5030642;28;20044;-74
2023/03/24 08:33:23;;;;;;;25.20;4.45;;;15.00;99.90;;;;;;5026769;28;20396;-74
2023/03/24 08:35:48;;;;;;;24.27;4.03;;;14.90;99.90;;;;;;5030812;28;20041;-74
2023/03/24 08:38:15;;;;;;;25.02;4.22;;;15.00;99.90;;;;;;5032816;28;20389;-74
2023/03/24 08:40:41;;;;;;;32.28;4.28;;;15.60;99.90;;;;;;5030685;28;20041;-75
2023/03/24 08:43:11;;;;;;;24.30;5.13;;;15.90;99.90;;;;;;5015366;28;20501;-75
2023/03/24 08:45:37;;;;;;;24.88;5.57;;;16.20;99.90;;;;;;5027642;28;20108;-75
2023/03/24 08:48:04;;;;;;;29.15;6.15;;;16.40;99.90;;;;;;5030767;28;20473;-75
2023/03/24 08:50:34;;;;;;;23.38;4.57;;;16.40;99.90;;;;;;5032588;28;20079;-75
2023/03/24 08:53:00;;;;;;;26.95;5.30;;;16.40;99.90;;;;;;5032949;28;20025;-75
2023/03/24 08:55:26;;;;;;;25.33;5.43;;;16.20;99.90;;;;;;5014952;28;20030;-75
2023/03/24 08:57:52;;;;;;;22.65;4.40;;;16.20;99.90;;;;;;5030353;28;20035;-75
2023/03/24 09:00:19;;;;;;;25.27;4.22;;;16.30;99.90;;;;;;5032053;28;20104;-75
2023/03/24 09:02:48;;;;;;;21.45;4.03;;;16.90;99.90;;;;;;5029960;28;20373;-75
2023/03/24 09:05:14;;;;;;;22.27;4.25;;;16.80;99.90;;;;;;5027139;28;20033;-75
2023/03/24 09:07:41;;;;;;;16.48;3.38;;;16.70;99.90;;;;;;5032628;28;20120;-75
2023/03/24 09:10:08;;;;;;;18.80;3.70;;;16.40;99.90;;;;;;5032334;28;20025;-74
2023/03/24 09:12:36;;;;;;;24.30;4.07;;;16.30;99.90;;;;;;5031719;28;20022;-74
2023/03/24 09:15:02;;;;;;;25.65;4.88;;;16.60;99.90;;;;;;5030108;28;20029;-74
2023/03/24 09:17:28;;;;;;;23.67;5.43;;;16.60;99.90;;;;;;5031611;28;20038;-75
2023/03/24 09:19:54;;;;;;;19.33;5.22;;;16.70;99.90;;;;;;5031958;28;20492;-74
2023/03/24 09:22:19;;;;;;;18.75;4.15;;;16.70;99.90;;;;;;5025952;28;20124;-74
2023/03/24 09:24:47;;;;;;;19.98;5.25;;;17.00;99.90;;;;;;5032297;28;20101;-74
2023/03/24 09:27:14;;;;;;;14.75;3.92;;;17.00;99.90;;;;;;5031642;28;20060;-75
2023/03/24 09:29:40;;;;;;;24.50;4.90;;;16.40;99.90;;;;;;5031802;28;20025;-74
2023/03/24 09:32:06;;;;;;;20.90;3.92;;;16.10;99.90;;;;;;5029009;28;20045;-74
2023/03/24 09:34:32;;;;;;;19.20;5.00;;;16.00;99.90;;;;;;5013916;28;20025;-74
2023/03/24 09:37:00;;;;;;;25.17;5.13;;;16.10;99.90;;;;;;5031773;28;20045;-74
2023/03/24 09:39:26;;;;;;;22.10;4.40;;;16.40;99.90;;;;;;5032000;28;20116;-74
2023/03/24 09:41:53;;;;;;;19.10;4.70;;;16.70;99.90;;;;;;5031471;28;20572;-74
2023/03/24 09:44:35;;;;;;;19.55;5.40;;;16.80;99.90;;;;;;5015494;28;20026;-74
2023/03/24 09:47:22;;;;;;;13.47;3.27;;;16.90;99.90;;;;;;5031895;28;20083;-75
2023/03/24 09:49:50;;;;;;;24.15;5.93;;;16.90;99.90;;;;;;5029472;28;20021;-75
2023/03/24 09:52:22;;;;;;;20.27;5.05;;;16.60;99.90;;;;;;5024034;28;20029;-74
2023/03/24 09:54:54;;;;;;;25.42;5.40;;;16.70;99.90;;;;;;5031579;28;20075;-75
2023/03/24 09:57:28;;;;;;;19.33;4.40;;;16.70;99.90;;;;;;5029868;28;20033;-75
2023/03/24 09:59:54;;;;;;;17.88;3.60;;;16.80;99.90;;;;;;5022481;28;20029;-74
2023/03/24 10:02:21;;;;;;;25.48;5.40;;;16.70;99.90;;;;;;5016586;28;20021;-74
2023/03/24 10:04:48;;;;;;;23.83;4.90;;;16.70;99.90;;;;;;5032003;28;20420;-74
2023/03/24 10:07:38;;;;;;;24.15;6.32;;;16.80;99.90;;;;;;5029104;28;20042;-75
2023/03/24 10:10:37;;;;;;;25.45;4.90;;;17.10;99.90;;;;;;5031910;28;20095;-75
2023/03/24 10:13:13;;;;;;;20.75;4.45;;;17.60;99.90;;;;;;5029513;28;20068;-75
2023/03/24 10:15:47;;;;;;;24.92;4.93;;;18.00;99.90;;;;;;5029417;28;20025;-75
2023/03/24 10:18:50;;;;;;;23.73;5.43;;;18.30;99.90;;;;;;5031429;28;20108;-75
2023/03/24 10:21:19;;;;;;;22.88;4.70;;;18.20;99.90;;;;;;5030757;28;20044;-75
2023/03/24 10:23:57;;;;;;;23.50;5.50;;;18.40;99.90;;;;;;5029812;28;20030;-75
2023/03/24 10:26:47;;;;;;;21.98;5.20;;;18.70;99.90;;;;;;5031171;28;20045;-75
2023/03/24 10:29:22;;;;;;;22.13;4.00;;;19.20;99.90;;;;;;5022360;28;20083;-75
2023/03/24 10:32:02;;;;;;;21.67;3.95;;;19.00;99.90;;;;;;5031017;28;20045;-75
2023/03/24 10:34:31;;;;;;;18.90;4.05;;;18.70;99.90;;;;;;5016646;28;20037;-75
2023/03/24 10:36:59;;;;;;;18.52;4.38;;;18.50;99.90;;;;;;5030931;28;20168;-75
2023/03/24 10:39:25;;;;;;;16.65;4.85;;;18.40;99.90;;;;;;5031355;28;20026;-75
2023/03/24 10:41:53;;;;;;;21.52;3.55;;;18.00;99.90;;;;;;5024928;28;20083;-74
2023/03/24 10:44:20;;;;;;;21.05;3.67;;;17.30;99.90;;;;;;5029450;28;20047;-74
2023/03/24 10:46:52;;;;;;;17.38;4.35;;;16.90;99.90;;;;;;5033646;28;20037;-75
2023/03/24 10:49:22;;;;;;;22.42;3.45;;;16.70;99.90;;;;;;5031694;28;20076;-74
2023/03/24 10:51:50;;;;;;;18.05;3.30;;;16.50;99.90;;;;;;5034927;28;20029;-74
2023/03/24 10:54:24;;;;;;;21.85;4.28;;;16.40;99.90;;;;;;5032387;28;20032;-75
2023/03/24 10:57:10;;;;;;;21.38;4.97;;;16.40;99.90;;;;;;5025401;28;20029;-75
2023/03/24 10:59:46;;;;;;;21.13;4.32;;;16.80;99.90;;;;;;5024428;28;20037;-75
2023/03/24 11:02:16;;;;;;;19.10;4.30;;;17.20;99.90;;;;;;5029240;28;20060;-75
2023/03/24 11:05:13;;;;;;;23.05;4.85;;;17.80;99.90;;;;;;5031960;28;20060;-75
2023/03/24 11:07:41;;;;;;;21.65;4.55;;;17.90;99.90;;;;;;5032636;28;20037;-74
2023/03/24 11:10:10;;;;;;;20.80;4.53;;;18.40;99.90;;;;;;5031393;28;20508;-75
2023/03/24 11:12:58;;;;;;;20.63;3.90;;;19.00;99.90;;;;;;5033826;28;20366;-75
2023/03/24 11:15:32;;;;;;;18.38;4.30;;;19.40;99.90;;;;;;5016471;28;20109;-75
2023/03/24 11:18:10;;;;;;;16.25;4.05;;;19.70;99.90;;;;;;5029532;28;20025;-75
2023/03/24 11:20:42;;;;;;;16.60;4.00;;;19.60;99.90;;;;;;5032621;28;20029;-75
2023/03/24 11:23:20;;;;;;;19.45;4.32;;;19.10;99.90;;;;;;5029158;28;20045;-75
2023/03/24 11:25:52;;;;;;;16.73;3.85;;;18.70;99.90;;;;;;5016366;28;20086;-75
2023/03/24 11:28:24;;;;;;;19.00;4.32;;;18.70;99.90;;;;;;5032161;28;20482;-75
2023/03/24 11:30:52;;;;;;;23.25;4.70;;;18.90;99.90;;;;;;5032901;28;20134;-75
2023/03/24 11:33:33;;;;;;;19.90;3.70;;;19.00;99.90;;;;;;5025869;28;20068;-75
2023/03/24 11:36:00;;;;;;;19.35;3.50;;;19.10;99.90;;;;;;5029407;28;20033;-75
2023/03/24 11:38:32;;;;;;;20.42;3.83;;;19.00;99.90;;;;;;5030497;28;20029;-75
2023/03/24 11:41:01;;;;;;;15.68;3.35;;;18.50;99.90;;;;;;5032773;28;20120;-75
2023/03/24 11:43:27;;;;;;;16.23;3.05;;;18.50;99.90;;;;;;5031390;28;20068;-76
2023/03/24 11:46:06;;;;;;;18.08;2.70;;;18.50;99.90;;;;;;5032308;28;20052;-75
2023/03/24 11:48:51;;;;;;;18.00;3.80;;;18.50;99.90;;;;;;5031854;28;20123;-76
2023/03/24 11:51:25;;;;;;;22.83;3.13;;;18.90;99.90;;;;;;5029422;28;20022;-76
2023/03/24 11:53:54;;;;;;;15.20;2.97;;;19.00;99.90;;;;;;5029072;28;20032;-76
2023/03/24 11:57:10;;;;;;;21.50;3.90;;;19.40;99.90;;;;;;5030678;28;20069;-76
2023/03/24 11:59:41;;;;;;;9.98;2.50;;;19.10;99.90;;;;;;4986899;28;20073;-75
2023/03/24 12:02:06;;;;;;;14.02;2.40;;;18.70;99.90;;;;;;5029074;28;20033;-76
2023/03/24 12:04:56;;;;;;;15.60;2.78;;;18.40;99.90;;;;;;5010736;28;20071;-76
2023/03/24 12:07:40;;;;;;;15.27;2.72;;;18.50;99.90;;;;;;5025832;28;20033;-76
2023/03/24 12:10:38;;;;;;;17.65;2.75;;;18.30;99.90;;;;;;5031965;28;20045;-76
2023/03/24 12:13:28;;;;;;;13.27;2.25;;;17.90;99.90;;;;;;5030724;28;20029;-75
2023/03/24 12:16:05;;;;;;;16.23;3.08;;;17.70;99.90;;;;;;5031331;28;20056;-75
2023/03/24 12:18:39;;;;;;;18.67;3.10;;;17.70;99.90;;;;;;5030560;28;20052;-75
2023/03/24 12:21:25;;;;;;;15.35;2.80;;;17.10;99.90;;;;;;5024964;28;20041;-75
2023/03/24 12:24:01;;;;;;;15.48;2.63;;;16.50;99.90;;;;;;5028440;28;20034;-75
2023/03/24 12:26:31;;;;;;;20.77;3.28;;;16.00;99.90;;;;;;5032859;28;20032;-75
2023/03/24 12:29:23;;;;;;;15.65;2.17;;;15.80;99.90;;;;;;5027242;28;20041;-75
2023/03/24 12:32:10;;;;;;;16.42;2.42;;;16.00;99.90;;;;;;5036134;28;20095;-75
2023/03/24 12:34:54;;;;;;;18.95;2.78;;;16.20;99.90;;;;;;5015641;28;20044;-75
2023/03/24 12:37:39;;;;;;;11.68;2.45;;;16.40;99.90;;;;;;5030324;28;20108;-76
2023/03/24 12:40:11;;;;;;;14.07;2.20;;;16.50;99.90;;;;;;5031488;28;20034;-75
2023/03/24 12:42:44;;;;;;;17.83;3.35;;;16.30;99.90;;;;;;5024493;28;20087;-75
2023/03/24 12:45:42;;;;;;;11.65;2.42;;;16.40;99.90;;;;;;5025914;28;20067;-75
2023/03/24 12:48:10;;;;;;;18.38;3.08;;;16.80;99.90;;;;;;5015791;28;20132;-75
2023/03/24 12:50:45;;;;;;;19.77;2.95;;;16.70;99.90;;;;;;5031685;28;20051;-76
2023/03/24 12:53:48;;;;;;;15.73;2.88;;;16.70;99.90;;;;;;5024719;28;20060;-76
2023/03/24 12:56:19;;;;;;;19.83;3.30;;;16.30;99.90;;;;;;5029542;28;20033;-75
2023/03/24 12:58:49;;;;;;;20.15;3.50;;;16.00;99.90;;;;;;5031900;28;20112;-75
2023/03/24 13:01:31;;;;;;;17.98;3.70;;;15.90;99.90;;;;;;5031188;28;20037;-75
2023/03/24 13:04:04;;;;;;;19.27;3.20;;;15.70;99.90;;;;;;5023469;28;20037;-75